• Join FlightAware (Why Join?)
  • Login
  • US Flag 
11:47PM EST


 

Airport Tracker/Info


-or-


 

Live Flight TrackerFlight Track Log ✈ EJA941 ✈ 10-Jan-2014 ✈ KIAD - KPKV

Flight Track Log - Related Links

Times and Time Zones

All times are in EST time to prevent confusion due to time zone crossing. See the EJA941 flight status page for this flight to view local times or setup timezone preferences in your user account.

Time Position Orientation Groundspeed Altitude Reporting Facility
EST Latitude Longitude Course Direction KTS MPH feet Rate Location/Type
10:57AM 38.8833 -77.4333 180° South 219 252 2,800  Level Potomac TRACON
10:58AM 38.8167 -77.4333 180° South 252 290 4,900 2,340 Climbing Potomac TRACON
10:59AM 38.7667 -77.4833 218° Southwest 253 291 7,500 2,880 Climbing Potomac TRACON
11:00AM 38.7000 -77.5333 210° Southwest 265 305 10,700 2,340 Climbing Potomac TRACON
11:01AM 38.6500 -77.6000 226° Southwest 296 341 12,200 1,200 Climbing Potomac TRACON
11:02AM 38.5872 -77.6500 212° Southwest 315 362 13,000 1,560 Climbing Washington Center
11:03AM 38.5172 -77.7197 218° Southwest 321 369 15,100 1,980 Climbing Washington Center
11:04AM 38.4656 -77.8058 233° Southwest 313 360 17,100 1,680 Climbing Washington Center
11:05AM 38.4181 -77.8972 236° Southwest 308 354 18,600 1,620 Climbing Washington Center
11:06AM 38.3681 -77.9964 237° Southwest 320 368 20,400 1,680 Climbing Washington Center
11:07AM 38.3139 -78.0978 236° Southwest 345 397 22,000 1,860 Climbing Washington Center
11:08AM 38.2594 -78.2042 237° Southwest 357 411 24,100 2,100 Climbing Washington Center
11:09AM 38.1986 -78.3131 235° Southwest 368 423 26,300 2,160 Climbing Washington Center
11:10AM 38.1397 -78.4244 236° Southwest 374 430 28,400 1,920 Climbing Washington Center
11:11AM 38.0975 -78.5417 245° Southwest 379 436 30,200 2,100 Climbing Washington Center
11:12AM 38.0522 -78.6797 247° West 374 430 32,700 1,860 Climbing Washington Center
11:13AM 38.0092 -78.8069 247° West 385 443 34,000 900 Climbing Washington Center
11:14AM 37.9639 -78.9369 246° West 397 457 34,600 1,320 Climbing Washington Center
11:15AM 37.9186 -79.0639 246° West 397 457 36,600 1,500 Climbing Washington Center
11:16AM 37.8717 -79.1722 241° Southwest 397 457 37,600 660 Climbing Washington Center
11:17AM 37.8139 -79.2931 239° Southwest 397 457 38,000 360 Climbing Washington Center
11:18AM 37.7514 -79.4161 237° Southwest 410 472 38,400 840 Climbing Washington Center
11:19AM 37.6828 -79.5436 236° Southwest 416 479 39,700 780 Climbing Washington Center
11:20AM 37.6267 -79.6614 239° Southwest 406 467 40,000 120 Climbing Washington Center
11:21AM 37.5731 -79.7658 237° Southwest 406 467 40,000  Level Washington Center
11:22AM 37.5144 -79.8858 238° Southwest 406 467 40,000  Level Washington Center
11:23AM 37.4539 -80.0053 237° Southwest 411 473 40,000  Level Washington Center
11:24AM 37.3731 -80.1583 236° Southwest 415 478 40,000  Level Atlanta Center
11:25AM 37.3103 -80.2789 237° Southwest 410 472 40,000  Level Atlanta Center
11:26AM 37.2511 -80.3939 237° Southwest 405 466 40,000  Level Atlanta Center
11:27AM 37.1839 -80.5219 237° Southwest 405 466 40,000  Level Atlanta Center
11:28AM 37.1225 -80.6392 237° Southwest 405 466 40,000  Level Atlanta Center
11:29AM 37.0675 -80.7586 240° Southwest 405 466 40,000  Level Atlanta Center
11:30AM 37.0228 -80.8803 245° Southwest 394 453 40,000  Level Atlanta Center
11:31AM 36.9861 -80.9933 248° West 394 453 40,000  Level Atlanta Center
11:32AM 36.9411 -81.1144 245° Southwest 389 448 40,000  Level Atlanta Center
11:33AM 36.8958 -81.2383 245° Southwest 389 448 40,000  Level Atlanta Center
11:34AM 36.8528 -81.3617 246° West 389 448 40,000  Level Atlanta Center
11:35AM 36.8014 -81.4956 244° Southwest 389 448 40,000  Level Atlanta Center
11:36AM 36.7683 -81.6081 250° West 384 442 40,000  Level Atlanta Center
11:37AM 36.7206 -81.7311 244° Southwest 384 442 40,000  Level Atlanta Center
11:38AM 36.6769 -81.8542 246° West 384 442 40,000  Level Atlanta Center
11:39AM 36.6311 -81.9769 245° Southwest 389 448 40,000  Level Atlanta Center
11:40AM 36.5853 -82.1022 246° West 389 448 40,000  Level Atlanta Center
11:41AM 36.5372 -82.2275 245° Southwest 394 453 40,000  Level Atlanta Center
11:42AM 36.4869 -82.3603 245° Southwest 394 453 40,000  Level Atlanta Center
11:43AM 36.4300 -82.4803 239° Southwest 400 460 40,000  Level Atlanta Center
11:44AM 36.3647 -82.5897 233° Southwest 405 466 40,000  Level Atlanta Center
11:45AM 36.2972 -82.7017 233° Southwest 410 472 40,000  Level Atlanta Center
11:46AM 36.2317 -82.8136 234° Southwest 410 472 40,000  Level Atlanta Center
11:47AM 36.1639 -82.9278 234° Southwest 415 478 40,000  Level Atlanta Center
11:48AM 36.0981 -83.0392 234° Southwest 410 472 40,000  Level Atlanta Center
11:49AM 36.0322 -83.1503 234° Southwest 410 472 40,000  Level Atlanta Center
11:50AM 35.9661 -83.2639 234° Southwest 410 472 40,000  Level Atlanta Center
11:51AM 35.9000 -83.3747 234° Southwest 410 472 40,000  Level Atlanta Center
11:52AM 35.8317 -83.4881 233° Southwest 415 478 40,000  Level Atlanta Center
11:53AM 35.7633 -83.6011 233° Southwest 415 478 40,000  Level Atlanta Center
11:54AM 35.6950 -83.7139 233° Southwest 415 478 40,000  Level Atlanta Center
11:55AM 35.6347 -83.8114 233° Southwest 415 478 40,000  Level Atlanta Center
11:56AM 35.5658 -83.9239 233° Southwest 415 478 40,000  Level Atlanta Center
11:57AM 35.4972 -84.0389 234° Southwest 415 478 40,000  Level Atlanta Center
11:58AM 35.4283 -84.1483 232° Southwest 415 478 40,000  Level Atlanta Center
11:59AM 35.3592 -84.2628 233° Southwest 415 478 40,000  Level Atlanta Center
12:00PM 35.2900 -84.3719 232° Southwest 415 478 40,000  Level Atlanta Center
12:01PM 35.2208 -84.4861 233° Southwest 415 478 40,000  Level Atlanta Center
12:02PM 35.1517 -84.6003 233° Southwest 420 483 40,000 60 Level Atlanta Center
12:03PM 35.0822 -84.7114 233° Southwest 420 483 40,200 480 Climbing Atlanta Center
12:04PM 35.0128 -84.8197 232° Southwest 415 478 41,000 840 Climbing Atlanta Center
12:05PM 34.9431 -84.9256 231° Southwest 415 478 41,900 900 Climbing Atlanta Center
12:06PM 34.8797 -85.0314 234° Southwest 410 472 42,800 540 Climbing Atlanta Center
12:07PM 34.8119 -85.1367 232° Southwest 405 466 43,000 60 Climbing Atlanta Center
12:08PM 34.7442 -85.2444 233° Southwest 410 472 43,000  Level Atlanta Center
12:09PM 34.6764 -85.3522 233° Southwest 410 472 43,000  Level Atlanta Center
12:10PM 34.6083 -85.4622 233° Southwest 410 472 43,000  Level Atlanta Center
12:11PM 34.5361 -85.5719 231° Southwest 410 472 43,000  Level Atlanta Center
12:12PM 34.4678 -85.6817 233° Southwest 410 472 43,000  Level Atlanta Center
12:13PM 34.3997 -85.7883 232° Southwest 410 472 43,000  Level Atlanta Center
12:14PM 34.3272 -85.8950 231° Southwest 415 478 43,000  Level Atlanta Center
12:15PM 34.2567 -86.0017 231° Southwest 415 478 43,000  Level Atlanta Center
12:16PM 34.1858 -86.1156 233° Southwest 415 478 43,000  Level Atlanta Center
12:17PM 34.1150 -86.2217 231° Southwest 420 483 43,000  Level Atlanta Center
12:18PM 34.0422 -86.3325 232° Southwest 420 483 43,000  Level Atlanta Center
12:19PM 33.9692 -86.4433 232° Southwest 420 483 43,000  Level Atlanta Center
12:20PM 33.8958 -86.5564 232° Southwest 420 483 43,000  Level Atlanta Center
12:21PM 33.8247 -86.6619 231° Southwest 420 483 43,000  Level Atlanta Center
12:22PM 33.7514 -86.7722 231° Southwest 420 483 43,000  Level Atlanta Center
12:23PM 33.6800 -86.8797 231° Southwest 420 483 43,000  Level Atlanta Center
12:24PM 33.6086 -86.9894 232° Southwest 420 483 43,000  Level Atlanta Center
12:25PM 33.5372 -87.0992 232° Southwest 420 483 43,000  Level Atlanta Center
12:26PM 33.4675 -87.2089 233° Southwest 420 483 43,000  Level Atlanta Center
12:28PM 33.3464 -87.4731 241° Southwest 411 473 43,000  Level Memphis Center
12:29PM 33.2914 -87.5939 241° Southwest 412 474 43,000  Level Memphis Center
12:30PM 33.2358 -87.7133 241° Southwest 413 475 43,000  Level Memphis Center
12:31PM 33.1683 -87.8583 241° Southwest 414 476 43,000  Level Memphis Center
12:33PM 33.1128 -87.9789 241° Southwest 415 478 43,000  Level Memphis Center
12:34PM 33.0558 -88.0983 240° Southwest 415 478 43,000  Level Memphis Center
12:35PM 32.9975 -88.2250 241° Southwest 417 480 43,000  Level Memphis Center
12:36PM 32.9411 -88.3439 241° Southwest 415 478 43,000  Level Memphis Center
12:37PM 32.8844 -88.4625 240° Southwest 414 476 43,000 360 Level Memphis Center
12:38PM 32.8297 -88.5792 241° Southwest 409 471 43,800 900 Climbing Memphis Center
12:39PM 32.7658 -88.7142 241° Southwest 396 456 44,900 540 Climbing Memphis Center
12:40PM 32.7125 -88.8239 240° Southwest 388 447 45,000  Climbing Memphis Center
12:41PM 32.6597 -88.9350 241° Southwest 386 444 45,000  Level Memphis Center
12:42PM 32.6056 -89.0472 240° Southwest 391 450 45,000  Level Memphis Center
12:43PM 32.5514 -89.1589 240° Southwest 391 450 45,000  Level Memphis Center
12:44PM 32.4967 -89.2719 240° Southwest 394 453 45,000  Level Memphis Center
12:45PM 32.4422 -89.3853 240° Southwest 395 455 45,000  Level Memphis Center
12:46PM 32.3761 -89.5206 240° Southwest 396 456 45,000  Level Memphis Center
12:47PM 32.3208 -89.6331 240° Southwest 396 456 45,000  Level Memphis Center
12:48PM 32.2658 -89.7456 240° Southwest 396 456 45,000  Level Memphis Center
12:49PM 32.2100 -89.8578 240° Southwest 397 457 45,000  Level Memphis Center
12:50PM 32.1556 -89.9694 240° Southwest 395 455 45,000  Level Memphis Center
12:51PM 32.1006 -90.0811 240° Southwest 394 453 45,000  Level Memphis Center
12:52PM 32.0347 -90.2144 240° Southwest 394 453 45,000  Level Memphis Center
12:53PM 31.9794 -90.3253 240° Southwest 393 452 45,000  Level Memphis Center
12:54PM 31.9350 -90.4164 240° Southwest 394 453 45,000  Level Houston Center
12:55PM 31.8786 -90.5272 239° Southwest 395 455 45,000  Level Houston Center
12:56PM 31.8233 -90.6369 239° Southwest 393 452 45,000  Level Houston Center
12:57PM 31.7689 -90.7472 240° Southwest 393 452 45,000  Level Houston Center
12:58PM 31.7125 -90.8561 239° Southwest 392 451 45,000  Level Houston Center
12:59PM 31.6469 -90.9878 240° Southwest 391 450 45,000  Level Houston Center
01:00PM 31.5903 -91.0975 239° Southwest 394 453 45,000  Level Houston Center
01:01PM 31.5406 -91.1958 239° Southwest 392 451 45,000  Level Houston Center
01:02PM 31.4733 -91.3272 239° Southwest 392 451 45,000  Level Houston Center
01:03PM 31.4183 -91.4367 240° Southwest 391 450 45,000  Level Houston Center
01:04PM 31.3628 -91.5450 239° Southwest 388 447 45,000  Level Houston Center
01:05PM 31.3064 -91.6536 239° Southwest 390 449 45,000  Level Houston Center
01:06PM 31.2503 -91.7619 239° Southwest 390 449 45,000  Level Houston Center
01:07PM 31.1942 -91.8711 239° Southwest 390 449 45,000  Level Houston Center
01:08PM 31.1267 -92.0022 239° Southwest 391 450 45,000  Level Houston Center
01:09PM 31.0678 -92.1144 239° Southwest 392 451 45,000  Level Houston Center
01:11PM 31.0117 -92.2242 239° Southwest 393 452 45,000  Level Houston Center
01:12PM 30.9553 -92.3303 238° Southwest 392 451 45,000  Level Houston Center
01:13PM 30.8978 -92.4400 239° Southwest 393 452 45,000  Level Houston Center
01:14PM 30.8408 -92.5494 239° Southwest 394 453 45,000  Level Houston Center
01:15PM 30.7839 -92.6575 238° Southwest 392 451 45,000  Level Houston Center
01:16PM 30.7156 -92.7853 238° Southwest 391 450 45,000  Level Houston Center
01:17PM 30.6575 -92.8931 238° Southwest 393 452 45,000  Level Houston Center
01:18PM 30.6008 -93.0014 239° Southwest 394 453 45,000  Level Houston Center
01:19PM 30.5422 -93.1094 238° Southwest 395 455 45,000  Level Houston Center
01:20PM 30.4844 -93.2164 238° Southwest 393 452 45,000  Level Houston Center
01:21PM 30.4272 -93.3247 239° Southwest 392 451 45,000  Level Houston Center
01:22PM 30.3581 -93.4561 239° Southwest 392 451 45,000  Level Houston Center
01:23PM 30.2992 -93.5644 238° Southwest 395 455 45,000  Level Houston Center
01:24PM 30.2378 -93.6789 238° Southwest 391 450 45,000  Level Houston Center
01:25PM 30.1803 -93.7856 238° Southwest 391 450 45,000  Level Houston Center
01:26PM 30.1225 -93.8914 238° Southwest 390 449 45,000  Level Houston Center
01:27PM 30.0650 -93.9981 238° Southwest 390 449 45,000 -240 Level Houston Center
01:28PM 30.0069 -94.1031 237° Southwest 390 449 44,600 -1,080 Descending Houston Center
01:29PM 29.9475 -94.2125 238° Southwest 400 460 42,800 -1,860 Descending Houston Center
01:30PM 29.8833 -94.3267 237° Southwest 407 468 40,800 -2,160 Descending Houston Center
01:31PM 29.8128 -94.4553 238° Southwest 399 459 38,400 -2,160 Descending Houston Center
01:32PM 29.7486 -94.5722 238° Southwest 426 490 36,400 -1,980 Descending Houston Center
01:33PM 29.6822 -94.6914 237° Southwest 440 506 34,300 -1,980 Descending Houston Center
01:34PM 29.6147 -94.8106 237° Southwest 442 509 32,300 -2,040 Descending Houston Center
01:35PM 29.5450 -94.9347 237° Southwest 454 522 30,100 -2,160 Descending Houston Center
01:36PM 29.4742 -95.0614 237° Southwest 461 531 27,900 -2,040 Descending Houston Center
01:37PM 29.4075 -95.1808 237° Southwest 438 504 26,000 -1,980 Descending Houston Center
01:38PM 29.3294 -95.3186 237° Southwest 424 488 23,800 -1,980 Descending Houston Center
01:40PM 29.2669 -95.4303 237° Southwest 418 481 21,900 -1,800 Descending Houston Center
01:41PM 29.2058 -95.5378 237° Southwest 405 466 20,100 -1,620 Descending Houston Center
01:42PM 29.1464 -95.6450 238° Southwest 401 461 18,600 -1,260 Descending Houston Center
01:43PM 29.0831 -95.7533 236° Southwest 408 470 17,500 -780 Descending Houston Center
01:44PM 29.0222 -95.8608 237° Southwest 405 466 17,000 -480 Descending Houston Center
01:45PM 28.9511 -95.9836 237° Southwest 400 460 16,600 -1,440 Descending Houston Center
01:46PM 28.8900 -96.0903 237° Southwest 400 460 14,100 -2,700 Descending Houston Center
01:47PM 28.8494 -96.1944 246° West 373 429 11,100 -1,920 Descending Houston Center
01:48PM 28.8428 -96.2914 266° West 319 367 10,200 -1,440 Descending Houston Center
01:49PM 28.8372 -96.3747 266° West 276 318 8,200 -2,100 Descending Houston Center
01:50PM 28.8317 -96.4703 266° West 257 296 5,900 -1,860 Descending Houston Center
01:51PM 28.8269 -96.5439 266° West 241 277 4,400 -960 Descending Houston Center
01:52PM 28.8231 -96.6142 266° West 230 265 4,000 -240 Descending Houston Center
01:53PM 28.8194 -96.6636 265° West 190 219 4,000  Level Houston Center
01:54PM 28.8156 -96.7169 265° West 170 196 4,000  Level Houston Center
01:55PM 28.8125 -96.7719 266° West 170 196 4,000 -960 Level Houston Center
01:56PM 28.7683 -96.7769 186° South 154 177 2,000 -1,200 Descending Houston Center
01:57PM 28.7414 -96.7531 142° Southeast 137 158 1,600 -420 Descending Houston Center